Terminal Aerodrome Forecast
Issued by NWS

Home | Current Version | Previous Version | Graphics & Text | Print | Product List | Glossary On
Versions: 1 2 3 4 5 6 7 8 9 10 11 12 13 14 15 16 17 18 19 20 21
789
FTUS43 KICT 172229 AAB
TAFCNU
TAF AMD
KCNU 172229Z 1722/1818 11005KT P6SM VCSH OVC013
      TEMPO 1722/1802 6SM -RA SCT015 OVC025
     FM180200 11007KT P6SM OVC025
     FM180900 13007KT 6SM BR VCTS SCT015 OVC035CB
     FM181400 13007KT P6SM SCT050=

USA.gov is the U.S. government's official web portal to all federal, state and local government web resources and services.